sensor_id;sensor_type;location;lat;lon;timestamp;temperature;humidity
21487;DHT22;10905;50.822;4.336;2024-01-30T00:01:42;11.50;99.90
21487;DHT22;10905;50.822;4.336;2024-01-30T00:04:07;11.50;99.90
21487;DHT22;10905;50.822;4.336;2024-01-30T00:06:33;11.60;99.90
21487;DHT22;10905;50.822;4.336;2024-01-30T00:08:58;11.80;99.90
21487;DHT22;10905;50.822;4.336;2024-01-30T00:11:24;11.90;99.90
21487;DHT22;10905;50.822;4.336;2024-01-30T00:13:54;12.00;99.90
21487;DHT22;10905;50.822;4.336;2024-01-30T00:16:22;12.10;99.90
21487;DHT22;10905;50.822;4.336;2024-01-30T00:18:50;12.10;99.90
21487;DHT22;10905;50.822;4.336;2024-01-30T00:21:16;12.10;99.90
21487;DHT22;10905;50.822;4.336;2024-01-30T00:23:41;12.20;99.90
21487;DHT22;10905;50.822;4.336;2024-01-30T00:26:07;12.20;99.90
21487;DHT22;10905;50.822;4.336;2024-01-30T00:28:33;12.10;99.90
21487;DHT22;10905;50.822;4.336;2024-01-30T00:30:58;12.10;99.90
21487;DHT22;10905;50.822;4.336;2024-01-30T00:33:24;12.10;99.90
21487;DHT22;10905;50.822;4.336;2024-01-30T00:35:50;12.10;99.90
21487;DHT22;10905;50.822;4.336;2024-01-30T00:38:15;12.20;99.90
21487;DHT22;10905;50.822;4.336;2024-01-30T00:40:41;12.20;99.90
21487;DHT22;10905;50.822;4.336;2024-01-30T00:43:07;12.20;99.90
21487;DHT22;10905;50.822;4.336;2024-01-30T00:45:32;12.20;99.90
21487;DHT22;10905;50.822;4.336;2024-01-30T00:47:58;12.30;99.90
21487;DHT22;10905;50.822;4.336;2024-01-30T00:50:24;12.30;99.90
21487;DHT22;10905;50.822;4.336;2024-01-30T00:52:49;12.30;99.90
21487;DHT22;10905;50.822;4.336;2024-01-30T00:55:15;12.30;99.90
21487;DHT22;10905;50.822;4.336;2024-01-30T00:57:41;12.30;99.90
21487;DHT22;10905;50.822;4.336;2024-01-30T01:00:07;12.40;99.90
21487;DHT22;10905;50.822;4.336;2024-01-30T01:02:35;12.40;99.90
21487;DHT22;10905;50.822;4.336;2024-01-30T01:05:01;12.40;99.90
21487;DHT22;10905;50.822;4.336;2024-01-30T01:07:27;12.40;99.90
21487;DHT22;10905;50.822;4.336;2024-01-30T01:09:53;12.40;99.90
21487;DHT22;10905;50.822;4.336;2024-01-30T01:12:18;12.40;99.90
21487;DHT22;10905;50.822;4.336;2024-01-30T01:14:44;12.50;99.90
21487;DHT22;10905;50.822;4.336;2024-01-30T01:17:10;12.50;99.90
21487;DHT22;10905;50.822;4.336;2024-01-30T01:19:36;12.50;99.90
21487;DHT22;10905;50.822;4.336;2024-01-30T01:22:02;12.50;99.90
21487;DHT22;10905;50.822;4.336;2024-01-30T01:24:30;12.50;99.90
21487;DHT22;10905;50.822;4.336;2024-01-30T01:26:56;12.50;99.90
21487;DHT22;10905;50.822;4.336;2024-01-30T01:29:22;12.60;99.90
21487;DHT22;10905;50.822;4.336;2024-01-30T01:31:54;12.50;99.90
21487;DHT22;10905;50.822;4.336;2024-01-30T01:34:20;12.50;99.90
21487;DHT22;10905;50.822;4.336;2024-01-30T01:36:45;12.60;99.90
21487;DHT22;10905;50.822;4.336;2024-01-30T01:39:11;12.60;99.90
21487;DHT22;10905;50.822;4.336;2024-01-30T01:41:37;12.60;99.90
21487;DHT22;10905;50.822;4.336;2024-01-30T01:44:02;12.60;99.90
21487;DHT22;10905;50.822;4.336;2024-01-30T01:46:31;12.60;99.90
21487;DHT22;10905;50.822;4.336;2024-01-30T01:48:58;12.60;99.90
21487;DHT22;10905;50.822;4.336;2024-01-30T01:51:27;12.50;99.90
21487;DHT22;10905;50.822;4.336;2024-01-30T01:53:54;12.60;99.90
21487;DHT22;10905;50.822;4.336;2024-01-30T01:56:21;12.60;99.90
21487;DHT22;10905;50.822;4.336;2024-01-30T01:58:47;12.80;99.90
21487;DHT22;10905;50.822;4.336;2024-01-30T02:01:14;12.70;99.90
21487;DHT22;10905;50.822;4.336;2024-01-30T02:03:41;12.60;99.90
21487;DHT22;10905;50.822;4.336;2024-01-30T02:06:07;12.60;99.90
21487;DHT22;10905;50.822;4.336;2024-01-30T02:08:33;12.60;99.90
21487;DHT22;10905;50.822;4.336;2024-01-30T02:10:59;12.60;99.90
21487;DHT22;10905;50.822;4.336;2024-01-30T02:13:25;12.60;99.90
21487;DHT22;10905;50.822;4.336;2024-01-30T02:15:53;12.50;99.90
21487;DHT22;10905;50.822;4.336;2024-01-30T02:18:20;12.50;99.90
21487;DHT22;10905;50.822;4.336;2024-01-30T02:20:47;12.60;99.90
21487;DHT22;10905;50.822;4.336;2024-01-30T02:23:15;12.60;99.90
21487;DHT22;10905;50.822;4.336;2024-01-30T02:25:42;12.60;99.90
21487;DHT22;10905;50.822;4.336;2024-01-30T02:28:13;12.60;99.90
21487;DHT22;10905;50.822;4.336;2024-01-30T02:30:39;12.60;99.90
21487;DHT22;10905;50.822;4.336;2024-01-30T02:33:05;12.60;99.90
21487;DHT22;10905;50.822;4.336;2024-01-30T02:35:31;12.50;99.90
21487;DHT22;10905;50.822;4.336;2024-01-30T02:37:56;12.50;99.90
21487;DHT22;10905;50.822;4.336;2024-01-30T02:40:22;12.60;99.90
21487;DHT22;10905;50.822;4.336;2024-01-30T02:42:48;12.70;99.90
21487;DHT22;10905;50.822;4.336;2024-01-30T02:45:13;12.70;99.90
21487;DHT22;10905;50.822;4.336;2024-01-30T02:47:39;12.70;99.90
21487;DHT22;10905;50.822;4.336;2024-01-30T02:50:05;12.70;99.90
21487;DHT22;10905;50.822;4.336;2024-01-30T02:52:31;12.70;99.90
21487;DHT22;10905;50.822;4.336;2024-01-30T02:54:57;12.60;99.90
21487;DHT22;10905;50.822;4.336;2024-01-30T02:57:22;12.60;99.90
21487;DHT22;10905;50.822;4.336;2024-01-30T02:59:48;12.70;99.90
21487;DHT22;10905;50.822;4.336;2024-01-30T03:02:14;12.70;99.90
21487;DHT22;10905;50.822;4.336;2024-01-30T03:04:42;12.60;99.90
21487;DHT22;10905;50.822;4.336;2024-01-30T03:07:08;12.70;99.90
21487;DHT22;10905;50.822;4.336;2024-01-30T03:09:34;12.60;99.90
21487;DHT22;10905;50.822;4.336;2024-01-30T03:12:00;12.60;99.90
21487;DHT22;10905;50.822;4.336;2024-01-30T03:14:26;12.60;99.90
21487;DHT22;10905;50.822;4.336;2024-01-30T03:16:51;12.70;99.90
21487;DHT22;10905;50.822;4.336;2024-01-30T03:19:17;12.70;99.90
21487;DHT22;10905;50.822;4.336;2024-01-30T03:21:44;12.60;99.90
21487;DHT22;10905;50.822;4.336;2024-01-30T03:24:09;12.50;99.90
21487;DHT22;10905;50.822;4.336;2024-01-30T03:26:35;12.60;99.90
21487;DHT22;10905;50.822;4.336;2024-01-30T03:29:01;12.60;99.90
21487;DHT22;10905;50.822;4.336;2024-01-30T03:31:27;12.70;99.90
21487;DHT22;10905;50.822;4.336;2024-01-30T03:33:52;12.70;99.90
21487;DHT22;10905;50.822;4.336;2024-01-30T03:36:18;12.60;99.90
21487;DHT22;10905;50.822;4.336;2024-01-30T03:38:45;12.60;99.90
21487;DHT22;10905;50.822;4.336;2024-01-30T03:41:10;12.60;99.90
21487;DHT22;10905;50.822;4.336;2024-01-30T03:43:36;12.60;99.90
21487;DHT22;10905;50.822;4.336;2024-01-30T03:46:02;12.60;99.90
21487;DHT22;10905;50.822;4.336;2024-01-30T03:48:29;12.60;99.90
21487;DHT22;10905;50.822;4.336;2024-01-30T03:50:55;12.50;99.90
21487;DHT22;10905;50.822;4.336;2024-01-30T03:53:22;12.50;99.90
21487;DHT22;10905;50.822;4.336;2024-01-30T03:55:48;12.40;99.90
21487;DHT22;10905;50.822;4.336;2024-01-30T03:58:13;12.40;99.90
21487;DHT22;10905;50.822;4.336;2024-01-30T04:00:39;12.50;99.90
21487;DHT22;10905;50.822;4.336;2024-01-30T04:03:06;12.50;99.90
21487;DHT22;10905;50.822;4.336;2024-01-30T04:05:32;12.60;99.90
21487;DHT22;10905;50.822;4.336;2024-01-30T04:07:58;12.60;99.90
21487;DHT22;10905;50.822;4.336;2024-01-30T04:10:24;12.60;99.90
21487;DHT22;10905;50.822;4.336;2024-01-30T04:12:50;12.70;99.90
21487;DHT22;10905;50.822;4.336;2024-01-30T04:15:17;12.70;99.90
21487;DHT22;10905;50.822;4.336;2024-01-30T04:17:44;12.80;99.90
21487;DHT22;10905;50.822;4.336;2024-01-30T04:20:15;12.60;99.90
21487;DHT22;10905;50.822;4.336;2024-01-30T04:22:45;12.60;99.90
21487;DHT22;10905;50.822;4.336;2024-01-30T04:25:11;12.60;99.90
21487;DHT22;10905;50.822;4.336;2024-01-30T04:27:37;12.60;99.90
21487;DHT22;10905;50.822;4.336;2024-01-30T04:30:03;12.60;99.90
21487;DHT22;10905;50.822;4.336;2024-01-30T04:32:29;12.60;99.90
21487;DHT22;10905;50.822;4.336;2024-01-30T04:34:55;12.50;99.90
21487;DHT22;10905;50.822;4.336;2024-01-30T04:37:20;12.50;99.90
21487;DHT22;10905;50.822;4.336;2024-01-30T04:39:46;12.50;99.90
21487;DHT22;10905;50.822;4.336;2024-01-30T04:42:11;12.50;99.90
21487;DHT22;10905;50.822;4.336;2024-01-30T04:44:37;12.50;99.90
21487;DHT22;10905;50.822;4.336;2024-01-30T04:47:03;12.40;99.90
21487;DHT22;10905;50.822;4.336;2024-01-30T04:49:30;12.50;99.90
21487;DHT22;10905;50.822;4.336;2024-01-30T04:51:56;12.50;99.90
21487;DHT22;10905;50.822;4.336;2024-01-30T04:54:22;12.50;99.90
21487;DHT22;10905;50.822;4.336;2024-01-30T04:56:47;12.50;99.90
21487;DHT22;10905;50.822;4.336;2024-01-30T04:59:13;12.40;99.90
21487;DHT22;10905;50.822;4.336;2024-01-30T05:01:38;12.40;99.90
21487;DHT22;10905;50.822;4.336;2024-01-30T05:04:06;12.50;99.90
21487;DHT22;10905;50.822;4.336;2024-01-30T05:06:32;12.50;99.90
21487;DHT22;10905;50.822;4.336;2024-01-30T05:08:58;12.40;99.90
21487;DHT22;10905;50.822;4.336;2024-01-30T05:11:23;12.50;99.90
21487;DHT22;10905;50.822;4.336;2024-01-30T05:13:49;12.50;99.90
21487;DHT22;10905;50.822;4.336;2024-01-30T05:16:14;12.50;99.90
21487;DHT22;10905;50.822;4.336;2024-01-30T05:18:40;12.50;99.90
21487;DHT22;10905;50.822;4.336;2024-01-30T05:21:06;12.60;99.90
21487;DHT22;10905;50.822;4.336;2024-01-30T05:23:31;12.50;99.90
21487;DHT22;10905;50.822;4.336;2024-01-30T05:25:57;12.50;99.90
21487;DHT22;10905;50.822;4.336;2024-01-30T05:28:22;12.60;99.90
21487;DHT22;10905;50.822;4.336;2024-01-30T05:30:48;12.50;99.90
21487;DHT22;10905;50.822;4.336;2024-01-30T05:33:14;12.40;99.90
21487;DHT22;10905;50.822;4.336;2024-01-30T05:35:39;12.50;99.90
21487;DHT22;10905;50.822;4.336;2024-01-30T05:38:05;12.50;99.90
21487;DHT22;10905;50.822;4.336;2024-01-30T05:40:30;12.50;99.90
21487;DHT22;10905;50.822;4.336;2024-01-30T05:42:56;12.60;99.90
21487;DHT22;10905;50.822;4.336;2024-01-30T05:45:26;12.40;99.90
21487;DHT22;10905;50.822;4.336;2024-01-30T05:47:52;12.40;99.90
21487;DHT22;10905;50.822;4.336;2024-01-30T05:50:18;12.60;99.90
21487;DHT22;10905;50.822;4.336;2024-01-30T05:52:43;12.60;99.90
21487;DHT22;10905;50.822;4.336;2024-01-30T05:55:09;12.60;99.90
21487;DHT22;10905;50.822;4.336;2024-01-30T05:57:35;12.50;99.90
21487;DHT22;10905;50.822;4.336;2024-01-30T06:00:01;12.50;99.90
21487;DHT22;10905;50.822;4.336;2024-01-30T06:02:27;12.50;99.90
21487;DHT22;10905;50.822;4.336;2024-01-30T06:04:52;12.50;99.90
21487;DHT22;10905;50.822;4.336;2024-01-30T06:07:18;12.60;99.90
21487;DHT22;10905;50.822;4.336;2024-01-30T06:09:43;12.50;99.90
21487;DHT22;10905;50.822;4.336;2024-01-30T06:12:09;12.50;99.90
21487;DHT22;10905;50.822;4.336;2024-01-30T06:14:37;12.50;99.90
21487;DHT22;10905;50.822;4.336;2024-01-30T06:17:03;12.50;99.90
21487;DHT22;10905;50.822;4.336;2024-01-30T06:19:28;12.30;99.90
21487;DHT22;10905;50.822;4.336;2024-01-30T06:21:54;12.40;99.90
21487;DHT22;10905;50.822;4.336;2024-01-30T06:24:19;12.30;99.90
21487;DHT22;10905;50.822;4.336;2024-01-30T06:26:45;12.40;99.90
21487;DHT22;10905;50.822;4.336;2024-01-30T06:29:11;12.40;99.90
21487;DHT22;10905;50.822;4.336;2024-01-30T06:31:42;12.40;99.90
21487;DHT22;10905;50.822;4.336;2024-01-30T06:34:09;12.40;99.90
21487;DHT22;10905;50.822;4.336;2024-01-30T06:36:35;12.30;99.90
21487;DHT22;10905;50.822;4.336;2024-01-30T06:39:02;12.40;99.90
21487;DHT22;10905;50.822;4.336;2024-01-30T06:41:28;12.40;99.90
21487;DHT22;10905;50.822;4.336;2024-01-30T06:43:53;12.30;99.90
21487;DHT22;10905;50.822;4.336;2024-01-30T06:46:19;12.30;99.90
21487;DHT22;10905;50.822;4.336;2024-01-30T06:48:44;12.30;99.90
21487;DHT22;10905;50.822;4.336;2024-01-30T06:51:11;12.40;99.90
21487;DHT22;10905;50.822;4.336;2024-01-30T06:53:37;12.40;99.90
21487;DHT22;10905;50.822;4.336;2024-01-30T06:56:03;12.40;99.90
21487;DHT22;10905;50.822;4.336;2024-01-30T06:58:29;12.40;99.90
21487;DHT22;10905;50.822;4.336;2024-01-30T07:00:55;12.40;99.90
21487;DHT22;10905;50.822;4.336;2024-01-30T07:03:21;12.40;99.90
21487;DHT22;10905;50.822;4.336;2024-01-30T07:05:47;12.30;99.90
21487;DHT22;10905;50.822;4.336;2024-01-30T07:08:12;12.20;99.90
21487;DHT22;10905;50.822;4.336;2024-01-30T07:10:38;12.30;99.90
21487;DHT22;10905;50.822;4.336;2024-01-30T07:13:04;12.30;99.90
21487;DHT22;10905;50.822;4.336;2024-01-30T07:15:31;12.30;99.90
21487;DHT22;10905;50.822;4.336;2024-01-30T07:17:57;12.40;99.90
21487;DHT22;10905;50.822;4.336;2024-01-30T07:20:23;12.40;99.90
21487;DHT22;10905;50.822;4.336;2024-01-30T07:22:49;12.40;99.90
21487;DHT22;10905;50.822;4.336;2024-01-30T07:25:15;12.40;99.90
21487;DHT22;10905;50.822;4.336;2024-01-30T07:27:42;12.50;99.90
21487;DHT22;10905;50.822;4.336;2024-01-30T07:30:08;12.50;99.90
21487;DHT22;10905;50.822;4.336;2024-01-30T07:32:33;12.60;99.90
21487;DHT22;10905;50.822;4.336;2024-01-30T07:34:59;12.60;99.90
21487;DHT22;10905;50.822;4.336;2024-01-30T07:37:25;12.60;99.90
21487;DHT22;10905;50.822;4.336;2024-01-30T07:39:50;12.70;99.90
21487;DHT22;10905;50.822;4.336;2024-01-30T07:42:16;12.70;99.90
21487;DHT22;10905;50.822;4.336;2024-01-30T07:44:43;12.60;99.90
21487;DHT22;10905;50.822;4.336;2024-01-30T07:47:09;12.60;99.90
21487;DHT22;10905;50.822;4.336;2024-01-30T07:49:34;12.60;99.90
21487;DHT22;10905;50.822;4.336;2024-01-30T07:52:00;12.60;99.90
21487;DHT22;10905;50.822;4.336;2024-01-30T07:54:26;12.60;99.90
21487;DHT22;10905;50.822;4.336;2024-01-30T07:56:52;12.60;99.90
21487;DHT22;10905;50.822;4.336;2024-01-30T07:59:17;12.60;99.90
21487;DHT22;10905;50.822;4.336;2024-01-30T08:01:45;12.70;99.90
21487;DHT22;10905;50.822;4.336;2024-01-30T08:04:10;12.60;99.90
21487;DHT22;10905;50.822;4.336;2024-01-30T08:06:36;12.60;99.90
21487;DHT22;10905;50.822;4.336;2024-01-30T08:09:01;12.60;99.90
21487;DHT22;10905;50.822;4.336;2024-01-30T08:11:28;12.60;99.90
21487;DHT22;10905;50.822;4.336;2024-01-30T08:13:55;12.60;99.90
21487;DHT22;10905;50.822;4.336;2024-01-30T08:16:20;12.60;99.90
21487;DHT22;10905;50.822;4.336;2024-01-30T08:18:46;12.50;99.90
21487;DHT22;10905;50.822;4.336;2024-01-30T08:21:12;12.50;99.90
21487;DHT22;10905;50.822;4.336;2024-01-30T08:23:42;12.50;99.90
21487;DHT22;10905;50.822;4.336;2024-01-30T08:26:08;12.50;99.90
21487;DHT22;10905;50.822;4.336;2024-01-30T08:28:34;12.50;99.90
21487;DHT22;10905;50.822;4.336;2024-01-30T08:30:59;12.60;99.90
21487;DHT22;10905;50.822;4.336;2024-01-30T08:33:25;12.70;99.90
21487;DHT22;10905;50.822;4.336;2024-01-30T08:35:51;12.60;99.90
21487;DHT22;10905;50.822;4.336;2024-01-30T08:38:16;12.60;99.90
21487;DHT22;10905;50.822;4.336;2024-01-30T08:40:42;12.70;99.90
21487;DHT22;10905;50.822;4.336;2024-01-30T08:43:07;12.70;99.90
21487;DHT22;10905;50.822;4.336;2024-01-30T08:45:35;12.70;99.90
21487;DHT22;10905;50.822;4.336;2024-01-30T08:48:01;12.70;99.90
21487;DHT22;10905;50.822;4.336;2024-01-30T08:50:26;12.80;99.90
21487;DHT22;10905;50.822;4.336;2024-01-30T08:52:52;12.80;99.90
21487;DHT22;10905;50.822;4.336;2024-01-30T08:55:18;12.90;99.90
21487;DHT22;10905;50.822;4.336;2024-01-30T08:57:43;13.00;99.90
21487;DHT22;10905;50.822;4.336;2024-01-30T09:00:09;13.00;99.90
21487;DHT22;10905;50.822;4.336;2024-01-30T09:02:35;13.00;99.90
21487;DHT22;10905;50.822;4.336;2024-01-30T09:05:01;13.00;99.90
21487;DHT22;10905;50.822;4.336;2024-01-30T09:07:27;12.90;99.90
21487;DHT22;10905;50.822;4.336;2024-01-30T09:09:53;12.90;99.90
21487;DHT22;10905;50.822;4.336;2024-01-30T09:12:18;12.90;99.90
21487;DHT22;10905;50.822;4.336;2024-01-30T09:14:44;13.00;99.90
21487;DHT22;10905;50.822;4.336;2024-01-30T09:17:10;13.10;99.90
21487;DHT22;10905;50.822;4.336;2024-01-30T09:19:36;13.00;99.90
21487;DHT22;10905;50.822;4.336;2024-01-30T09:22:01;13.10;99.90
21487;DHT22;10905;50.822;4.336;2024-01-30T09:24:27;13.00;99.90
21487;DHT22;10905;50.822;4.336;2024-01-30T09:26:53;13.00;99.90
21487;DHT22;10905;50.822;4.336;2024-01-30T09:29:18;13.00;99.90
21487;DHT22;10905;50.822;4.336;2024-01-30T09:31:45;13.00;99.90
21487;DHT22;10905;50.822;4.336;2024-01-30T09:34:11;13.10;99.90
21487;DHT22;10905;50.822;4.336;2024-01-30T09:36:37;13.10;99.90
21487;DHT22;10905;50.822;4.336;2024-01-30T09:39:02;13.00;99.90
21487;DHT22;10905;50.822;4.336;2024-01-30T09:41:32;12.90;99.90
21487;DHT22;10905;50.822;4.336;2024-01-30T09:43:59;12.90;99.90
21487;DHT22;10905;50.822;4.336;2024-01-30T09:46:27;12.90;99.90
21487;DHT22;10905;50.822;4.336;2024-01-30T09:48:54;12.80;99.90
21487;DHT22;10905;50.822;4.336;2024-01-30T09:51:21;12.80;99.90
21487;DHT22;10905;50.822;4.336;2024-01-30T09:53:48;12.90;99.90
21487;DHT22;10905;50.822;4.336;2024-01-30T09:56:14;12.80;99.90
21487;DHT22;10905;50.822;4.336;2024-01-30T09:58:40;12.80;99.90
21487;DHT22;10905;50.822;4.336;2024-01-30T10:01:07;12.80;99.90
21487;DHT22;10905;50.822;4.336;2024-01-30T10:03:33;12.90;99.90
21487;DHT22;10905;50.822;4.336;2024-01-30T10:05:59;12.90;99.90
21487;DHT22;10905;50.822;4.336;2024-01-30T10:08:26;12.70;99.90
21487;DHT22;10905;50.822;4.336;2024-01-30T10:10:52;12.80;99.90
21487;DHT22;10905;50.822;4.336;2024-01-30T10:13:18;12.80;99.90
21487;DHT22;10905;50.822;4.336;2024-01-30T10:15:44;12.90;99.90
21487;DHT22;10905;50.822;4.336;2024-01-30T10:18:10;12.90;99.90
21487;DHT22;10905;50.822;4.336;2024-01-30T10:20:36;12.90;99.90
21487;DHT22;10905;50.822;4.336;2024-01-30T10:23:02;12.70;99.90
21487;DHT22;10905;50.822;4.336;2024-01-30T10:25:30;12.70;99.90
21487;DHT22;10905;50.822;4.336;2024-01-30T10:27:57;12.70;99.90
21487;DHT22;10905;50.822;4.336;2024-01-30T10:30:24;12.80;99.90
21487;DHT22;10905;50.822;4.336;2024-01-30T10:32:50;12.70;99.90
21487;DHT22;10905;50.822;4.336;2024-01-30T10:35:16;12.70;99.90
21487;DHT22;10905;50.822;4.336;2024-01-30T10:37:47;12.60;99.90
21487;DHT22;10905;50.822;4.336;2024-01-30T10:40:14;12.60;99.90
21487;DHT22;10905;50.822;4.336;2024-01-30T10:42:43;12.60;99.90
21487;DHT22;10905;50.822;4.336;2024-01-30T10:45:11;12.50;99.90
21487;DHT22;10905;50.822;4.336;2024-01-30T10:47:44;12.60;99.90
21487;DHT22;10905;50.822;4.336;2024-01-30T10:50:09;12.70;99.90
21487;DHT22;10905;50.822;4.336;2024-01-30T10:52:36;12.70;99.90
21487;DHT22;10905;50.822;4.336;2024-01-30T10:55:04;12.70;99.90
21487;DHT22;10905;50.822;4.336;2024-01-30T10:57:34;12.60;99.90
21487;DHT22;10905;50.822;4.336;2024-01-30T11:00:00;12.50;99.90
21487;DHT22;10905;50.822;4.336;2024-01-30T11:02:27;12.50;99.90
21487;DHT22;10905;50.822;4.336;2024-01-30T11:05:00;12.40;99.90
21487;DHT22;10905;50.822;4.336;2024-01-30T11:07:27;12.40;99.90
21487;DHT22;10905;50.822;4.336;2024-01-30T11:12:29;12.20;99.90
21487;DHT22;10905;50.822;4.336;2024-01-30T11:15:21;12.10;99.90
21487;DHT22;10905;50.822;4.336;2024-01-30T11:20:30;12.20;99.90
21487;DHT22;10905;50.822;4.336;2024-01-30T11:22:57;12.20;99.90
21487;DHT22;10905;50.822;4.336;2024-01-30T11:25:24;12.20;99.90
21487;DHT22;10905;50.822;4.336;2024-01-30T11:27:54;12.30;99.90
21487;DHT22;10905;50.822;4.336;2024-01-30T11:35:25;12.30;99.90
21487;DHT22;10905;50.822;4.336;2024-01-30T11:37:51;12.30;99.90
21487;DHT22;10905;50.822;4.336;2024-01-30T11:40:17;12.30;99.90
21487;DHT22;10905;50.822;4.336;2024-01-30T11:42:43;12.30;99.90
21487;DHT22;10905;50.822;4.336;2024-01-30T11:45:09;12.30;99.90
21487;DHT22;10905;50.822;4.336;2024-01-30T11:47:36;12.30;99.90
21487;DHT22;10905;50.822;4.336;2024-01-30T11:50:04;12.30;99.90
21487;DHT22;10905;50.822;4.336;2024-01-30T11:52:33;12.40;99.90
21487;DHT22;10905;50.822;4.336;2024-01-30T11:54:59;12.50;99.90
21487;DHT22;10905;50.822;4.336;2024-01-30T11:57:27;12.50;99.90
21487;DHT22;10905;50.822;4.336;2024-01-30T11:59:53;12.40;99.90
21487;DHT22;10905;50.822;4.336;2024-01-30T12:02:19;12.50;99.90
21487;DHT22;10905;50.822;4.336;2024-01-30T12:04:45;12.60;99.90
21487;DHT22;10905;50.822;4.336;2024-01-30T12:07:11;12.60;99.90
21487;DHT22;10905;50.822;4.336;2024-01-30T12:09:38;12.60;99.90
21487;DHT22;10905;50.822;4.336;2024-01-30T12:12:04;12.70;99.90
21487;DHT22;10905;50.822;4.336;2024-01-30T12:14:31;12.60;99.90
21487;DHT22;10905;50.822;4.336;2024-01-30T12:16:57;12.40;99.90
21487;DHT22;10905;50.822;4.336;2024-01-30T12:19:24;12.10;99.90
21487;DHT22;10905;50.822;4.336;2024-01-30T12:21:57;12.00;99.90
21487;DHT22;10905;50.822;4.336;2024-01-30T12:24:27;12.10;99.90
21487;DHT22;10905;50.822;4.336;2024-01-30T12:26:57;12.20;99.90
21487;DHT22;10905;50.822;4.336;2024-01-30T12:29:23;12.20;99.90
21487;DHT22;10905;50.822;4.336;2024-01-30T12:31:49;12.30;99.90
21487;DHT22;10905;50.822;4.336;2024-01-30T12:34:17;12.50;99.90
21487;DHT22;10905;50.822;4.336;2024-01-30T12:36:47;12.60;99.90
21487;DHT22;10905;50.822;4.336;2024-01-30T12:39:13;12.70;99.90
21487;DHT22;10905;50.822;4.336;2024-01-30T12:41:40;12.60;99.90
21487;DHT22;10905;50.822;4.336;2024-01-30T12:44:06;12.50;99.90
21487;DHT22;10905;50.822;4.336;2024-01-30T12:46:34;12.40;99.90
21487;DHT22;10905;50.822;4.336;2024-01-30T12:49:00;12.30;99.90
21487;DHT22;10905;50.822;4.336;2024-01-30T12:51:26;12.20;99.90
21487;DHT22;10905;50.822;4.336;2024-01-30T12:53:51;12.20;99.90
21487;DHT22;10905;50.822;4.336;2024-01-30T12:56:17;12.20;99.90
21487;DHT22;10905;50.822;4.336;2024-01-30T12:58:43;12.30;99.90
21487;DHT22;10905;50.822;4.336;2024-01-30T13:01:09;12.30;99.90
21487;DHT22;10905;50.822;4.336;2024-01-30T13:03:35;12.30;99.90
21487;DHT22;10905;50.822;4.336;2024-01-30T13:06:01;12.20;99.90
21487;DHT22;10905;50.822;4.336;2024-01-30T13:08:27;12.30;99.90
21487;DHT22;10905;50.822;4.336;2024-01-30T13:10:53;12.20;99.90
21487;DHT22;10905;50.822;4.336;2024-01-30T13:13:18;12.30;99.90
21487;DHT22;10905;50.822;4.336;2024-01-30T13:15:44;12.40;99.90
21487;DHT22;10905;50.822;4.336;2024-01-30T13:18:10;12.40;99.90
21487;DHT22;10905;50.822;4.336;2024-01-30T13:20:35;12.50;99.90
21487;DHT22;10905;50.822;4.336;2024-01-30T13:23:01;12.50;99.90
21487;DHT22;10905;50.822;4.336;2024-01-30T13:25:27;12.50;99.90
21487;DHT22;10905;50.822;4.336;2024-01-30T13:27:52;12.50;99.90
21487;DHT22;10905;50.822;4.336;2024-01-30T13:30:18;12.50;99.90
21487;DHT22;10905;50.822;4.336;2024-01-30T13:32:44;12.40;99.90
21487;DHT22;10905;50.822;4.336;2024-01-30T13:35:10;12.20;99.90
21487;DHT22;10905;50.822;4.336;2024-01-30T13:37:36;12.20;99.90
21487;DHT22;10905;50.822;4.336;2024-01-30T13:40:04;12.20;99.90
21487;DHT22;10905;50.822;4.336;2024-01-30T13:42:32;12.20;99.90
21487;DHT22;10905;50.822;4.336;2024-01-30T13:44:58;12.10;99.90
21487;DHT22;10905;50.822;4.336;2024-01-30T13:47:24;12.10;99.90
21487;DHT22;10905;50.822;4.336;2024-01-30T13:49:50;12.10;99.90
21487;DHT22;10905;50.822;4.336;2024-01-30T13:52:18;12.10;99.90
21487;DHT22;10905;50.822;4.336;2024-01-30T13:54:44;12.10;99.90
21487;DHT22;10905;50.822;4.336;2024-01-30T13:57:09;12.10;99.90
21487;DHT22;10905;50.822;4.336;2024-01-30T13:59:35;12.10;99.90
21487;DHT22;10905;50.822;4.336;2024-01-30T14:02:01;12.00;99.90
21487;DHT22;10905;50.822;4.336;2024-01-30T14:04:26;12.10;99.90
21487;DHT22;10905;50.822;4.336;2024-01-30T14:06:52;12.10;99.90
21487;DHT22;10905;50.822;4.336;2024-01-30T14:09:17;11.90;99.90
21487;DHT22;10905;50.822;4.336;2024-01-30T14:11:43;11.80;99.90
21487;DHT22;10905;50.822;4.336;2024-01-30T14:14:09;11.80;99.90
21487;DHT22;10905;50.822;4.336;2024-01-30T14:16:35;11.80;99.90
21487;DHT22;10905;50.822;4.336;2024-01-30T14:19:01;11.80;99.90
21487;DHT22;10905;50.822;4.336;2024-01-30T14:21:26;11.80;99.90
21487;DHT22;10905;50.822;4.336;2024-01-30T14:23:52;11.90;99.90
21487;DHT22;10905;50.822;4.336;2024-01-30T14:26:17;11.90;99.90
21487;DHT22;10905;50.822;4.336;2024-01-30T14:28:43;11.90;99.90
21487;DHT22;10905;50.822;4.336;2024-01-30T14:31:11;11.90;99.90
21487;DHT22;10905;50.822;4.336;2024-01-30T14:33:37;11.80;99.90
21487;DHT22;10905;50.822;4.336;2024-01-30T14:36:02;11.70;99.90
21487;DHT22;10905;50.822;4.336;2024-01-30T14:38:28;11.70;99.90
21487;DHT22;10905;50.822;4.336;2024-01-30T14:40:54;11.60;99.90
21487;DHT22;10905;50.822;4.336;2024-01-30T14:43:20;11.70;99.90
21487;DHT22;10905;50.822;4.336;2024-01-30T14:45:45;11.80;99.90
21487;DHT22;10905;50.822;4.336;2024-01-30T14:48:14;11.80;99.90
21487;DHT22;10905;50.822;4.336;2024-01-30T14:50:40;11.70;99.90
21487;DHT22;10905;50.822;4.336;2024-01-30T14:53:05;11.70;99.90
21487;DHT22;10905;50.822;4.336;2024-01-30T14:55:31;11.50;99.90
21487;DHT22;10905;50.822;4.336;2024-01-30T14:57:56;11.30;99.90
21487;DHT22;10905;50.822;4.336;2024-01-30T15:00:24;11.40;99.90
21487;DHT22;10905;50.822;4.336;2024-01-30T15:02:50;11.30;99.90
21487;DHT22;10905;50.822;4.336;2024-01-30T15:05:15;11.40;99.90
21487;DHT22;10905;50.822;4.336;2024-01-30T15:07:41;11.20;99.90
21487;DHT22;10905;50.822;4.336;2024-01-30T15:10:10;11.30;99.90
21487;DHT22;10905;50.822;4.336;2024-01-30T15:12:36;11.20;99.90
21487;DHT22;10905;50.822;4.336;2024-01-30T15:15:03;11.20;99.90
21487;DHT22;10905;50.822;4.336;2024-01-30T15:17:28;11.30;99.90
21487;DHT22;10905;50.822;4.336;2024-01-30T15:19:54;11.30;99.90
21487;DHT22;10905;50.822;4.336;2024-01-30T15:22:20;11.30;99.90
21487;DHT22;10905;50.822;4.336;2024-01-30T15:24:46;11.30;99.90
21487;DHT22;10905;50.822;4.336;2024-01-30T15:27:12;11.20;99.90
21487;DHT22;10905;50.822;4.336;2024-01-30T15:29:37;11.10;99.90
21487;DHT22;10905;50.822;4.336;2024-01-30T15:32:03;11.00;99.90
21487;DHT22;10905;50.822;4.336;2024-01-30T15:34:29;11.00;99.90